Details From LIML - Milano Linate
To LIMJ - Genova Sestri
Flight Number -
Tags generated
Created
Modified
Stats Distance 65 nm / 120 km
Max Altitude 7,100 ft / 2,164 m
Waypoints 3
Social Downloads 28
Likes 0
Share

Download

Looking for another format? Having issues loading an existing format? Contact us
Advertisement - Login to hide

Notes

Basic altitude profile: - Ascent Rate: 2200ft/min - Ascent Speed: 250kts - Cruise Altitude: 1200ft - Cruise Speed: 320kts - Descent Rate: 1500ft/min - Descent Speed: 250kts Options: - Use NATs: yes - Use PACOTS: yes - Use low airways: no - Use high airways: yes

Route

LIML BOTAL LIMJ

ID Type Via Altitude (ft/m) Position (lat/lon) Dist (leg/tot) Name
O LIML APT - 0 / 0 45.45030 / 9.27280 - / 0 nm Milano Linate
BOTAL FIX - 7,100 / 2,164 45.13361 / 9.12278 20 / 20 nm
O LIMJ APT - 0 / 0 44.41196 / 8.84187 44 / 65 nm Genova Sestri

Altitude Profile

Advertisement - Login to hide

LIML

Details ICAO LIML (LIN)
Name Milano-Linate "Enrico Forlanini"
Region Italy
Timezone Europe/Rome (UTC+2.0)
Stats Elevation 354 ft / 108 m (AMSL)
Location 45.450300° 9.272810°
Runways 2
Magnetic Variation 2.830° E

METAR

LIML 220750Z 26003KT 190V290 3000 BR BKN050 13/12 Q1024 NOSIG

Decode

TAF

TAF LIML 220500Z 2206/2306 VRB05KT 6000 BKN050 TEMPO 2206/2207 2000 BR TEMPO 2221/2306 RA

Decode

Departure Runways

ID Width Length Bearing (true/mag) Surface Threshold Overrun Markings Lighting
17 72 ft / 22 m 1,974 ft / 602 m 175.66° / 172.83° ASPHALT 0 ft / 0 m 0 ft / 0 m VISUAL
18 197 ft / 60 m 8,019 ft / 2,444 m 175.67° / 172.84° ASPHALT 0 ft / 0 m 200 ft / 61 m PREC-APP CENTERLINE EDGE THRESHOLD ALSF-I REIL-OMNI
35 72 ft / 22 m 1,974 ft / 602 m 355.66° / 352.83° ASPHALT 0 ft / 0 m 0 ft / 0 m VISUAL
36 197 ft / 60 m 8,019 ft / 2,444 m 355.67° / 352.84° ASPHALT 0 ft / 0 m 413 ft / 126 m PREC-APP CENTERLINE EDGE THRESHOLD ALSF-I REIL-OMNI

LIMJ

Details ICAO LIMJ (GOA)
Name Genova-Sestri "Cristoforo Colombo"
Region Italy
Timezone Unknown
Stats Elevation 13 ft / 4 m (AMSL)
Location 44.412000° 8.841870°
Runways 1
Magnetic Variation 2.711° E

METAR

LIMJ 220750Z 05008KT 020V090 9999 -DZ SCT016 OVC024 16/13 Q1023

Decode

TAF

TAF LIMJ 220500Z 2206/2306 VRB05KT 9999 BKN050 BECMG 2210/2212 15010KT TEMPO 2210/2306 SHRA

Decode

Destination Runways

ID Width Length Bearing (true/mag) Surface Threshold Overrun Markings Lighting
10 148 ft / 45 m 9,576 ft / 2,919 m 105.34° / 102.63° ASPHALT 0 ft / 0 m 197 ft / 60 m PREC-APP CENTERLINE EDGE THRESHOLD REIL-OMNI
28 148 ft / 45 m 9,576 ft / 2,919 m 285.37° / 282.66° ASPHALT 535 ft / 163 m 0 ft / 0 m PREC-APP CENTERLINE EDGE THRESHOLD SALS REIL-OMNI

Approach Navaids

Runway Type Ident Frequency Range Bearing (true/mag) Slope Elevation
28 LOC-ILS GSE 109.30 MHz 18 nm / 33 km 285.40° / 282.69 ° - 9 ft / 3 m (AMSL)
28 GS GSE 109.30 MHz 10 nm / 19 km 285.40° / 282.69 ° 3.17° 26 ft / 8 m (AMSL)
28 DME GSE 109.30 MHz 18 nm / 33 km - - 26 ft / 8 m (AMSL)

Popular Alternatives